sensor_id;sensor_type;location;lat;lon;timestamp;P1;durP1;ratioP1;P2;durP2;ratioP2
10491;SDS011;5293;51.464;-2.566;2022-09-02T00:01:29;6.27;;;2.93;;
10491;SDS011;5293;51.464;-2.566;2022-09-02T00:03:58;4.17;;;3.07;;
10491;SDS011;5293;51.464;-2.566;2022-09-02T00:06:28;5.10;;;2.70;;
10491;SDS011;5293;51.464;-2.566;2022-09-02T00:08:55;4.80;;;2.60;;
10491;SDS011;5293;51.464;-2.566;2022-09-02T00:11:23;6.73;;;2.80;;
10491;SDS011;5293;51.464;-2.566;2022-09-02T00:13:51;8.43;;;3.30;;
10491;SDS011;5293;51.464;-2.566;2022-09-02T00:16:17;5.40;;;2.97;;
10491;SDS011;5293;51.464;-2.566;2022-09-02T00:18:43;7.47;;;2.80;;
10491;SDS011;5293;51.464;-2.566;2022-09-02T00:21:12;4.40;;;2.83;;
10491;SDS011;5293;51.464;-2.566;2022-09-02T00:23:39;6.27;;;2.93;;
10491;SDS011;5293;51.464;-2.566;2022-09-02T00:26:07;3.50;;;3.10;;
10491;SDS011;5293;51.464;-2.566;2022-09-02T00:28:32;3.50;;;3.03;;
10491;SDS011;5293;51.464;-2.566;2022-09-02T00:30:58;6.00;;;3.07;;
10491;SDS011;5293;51.464;-2.566;2022-09-02T00:33:24;6.43;;;3.30;;
10491;SDS011;5293;51.464;-2.566;2022-09-02T00:35:49;3.73;;;3.03;;
10491;SDS011;5293;51.464;-2.566;2022-09-02T00:38:15;4.10;;;3.10;;
10491;SDS011;5293;51.464;-2.566;2022-09-02T00:40:45;5.23;;;3.53;;
10491;SDS011;5293;51.464;-2.566;2022-09-02T00:43:23;6.60;;;3.90;;
10491;SDS011;5293;51.464;-2.566;2022-09-02T00:46:01;6.73;;;4.23;;
10491;SDS011;5293;51.464;-2.566;2022-09-02T00:48:27;6.07;;;4.27;;
10491;SDS011;5293;51.464;-2.566;2022-09-02T00:50:53;4.60;;;3.97;;
10491;SDS011;5293;51.464;-2.566;2022-09-02T00:53:19;4.90;;;4.40;;
10491;SDS011;5293;51.464;-2.566;2022-09-02T00:55:46;7.40;;;5.33;;
10491;SDS011;5293;51.464;-2.566;2022-09-02T00:58:15;7.53;;;5.97;;
10491;SDS011;5293;51.464;-2.566;2022-09-02T01:00:45;7.03;;;4.93;;
10491;SDS011;5293;51.464;-2.566;2022-09-02T01:03:14;6.20;;;5.07;;
10491;SDS011;5293;51.464;-2.566;2022-09-02T01:05:43;10.93;;;6.43;;
10491;SDS011;5293;51.464;-2.566;2022-09-02T01:08:12;7.70;;;5.00;;
10491;SDS011;5293;51.464;-2.566;2022-09-02T01:10:40;7.50;;;4.83;;
10491;SDS011;5293;51.464;-2.566;2022-09-02T01:13:08;8.13;;;4.97;;
10491;SDS011;5293;51.464;-2.566;2022-09-02T01:15:41;7.83;;;5.00;;
10491;SDS011;5293;51.464;-2.566;2022-09-02T01:18:12;5.57;;;5.00;;
10491;SDS011;5293;51.464;-2.566;2022-09-02T01:20:41;6.47;;;5.27;;
10491;SDS011;5293;51.464;-2.566;2022-09-02T01:23:07;5.63;;;5.00;;
10491;SDS011;5293;51.464;-2.566;2022-09-02T01:25:34;8.97;;;5.00;;
10491;SDS011;5293;51.464;-2.566;2022-09-02T01:28:02;6.00;;;4.83;;
10491;SDS011;5293;51.464;-2.566;2022-09-02T01:30:31;7.07;;;5.10;;
10491;SDS011;5293;51.464;-2.566;2022-09-02T01:32:57;8.90;;;4.93;;
10491;SDS011;5293;51.464;-2.566;2022-09-02T01:35:23;7.77;;;4.97;;
10491;SDS011;5293;51.464;-2.566;2022-09-02T01:37:52;8.23;;;5.50;;
10491;SDS011;5293;51.464;-2.566;2022-09-02T01:40:19;10.37;;;5.60;;
10491;SDS011;5293;51.464;-2.566;2022-09-02T01:42:45;6.30;;;4.70;;
10491;SDS011;5293;51.464;-2.566;2022-09-02T01:45:11;11.33;;;4.97;;
10491;SDS011;5293;51.464;-2.566;2022-09-02T01:47:39;12.37;;;5.67;;
10491;SDS011;5293;51.464;-2.566;2022-09-02T01:50:05;6.20;;;4.90;;
10491;SDS011;5293;51.464;-2.566;2022-09-02T01:52:32;5.73;;;4.93;;
10491;SDS011;5293;51.464;-2.566;2022-09-02T01:54:58;6.07;;;5.20;;
10491;SDS011;5293;51.464;-2.566;2022-09-02T01:57:24;6.40;;;5.37;;
10491;SDS011;5293;51.464;-2.566;2022-09-02T01:59:50;6.67;;;5.23;;
10491;SDS011;5293;51.464;-2.566;2022-09-02T02:02:16;5.60;;;5.00;;
10491;SDS011;5293;51.464;-2.566;2022-09-02T02:04:44;5.80;;;4.70;;
10491;SDS011;5293;51.464;-2.566;2022-09-02T02:07:16;5.90;;;5.03;;
10491;SDS011;5293;51.464;-2.566;2022-09-02T02:09:42;6.63;;;5.20;;
10491;SDS011;5293;51.464;-2.566;2022-09-02T02:12:08;10.07;;;5.33;;
10491;SDS011;5293;51.464;-2.566;2022-09-02T02:14:34;10.13;;;4.60;;
10491;SDS011;5293;51.464;-2.566;2022-09-02T02:17:02;5.73;;;4.77;;
10491;SDS011;5293;51.464;-2.566;2022-09-02T02:19:28;9.13;;;5.43;;
10491;SDS011;5293;51.464;-2.566;2022-09-02T02:21:54;6.03;;;5.20;;
10491;SDS011;5293;51.464;-2.566;2022-09-02T02:24:19;8.63;;;5.60;;
10491;SDS011;5293;51.464;-2.566;2022-09-02T02:26:45;7.67;;;5.00;;
10491;SDS011;5293;51.464;-2.566;2022-09-02T02:29:11;6.23;;;4.87;;
10491;SDS011;5293;51.464;-2.566;2022-09-02T02:31:38;6.50;;;5.17;;
10491;SDS011;5293;51.464;-2.566;2022-09-02T02:34:04;5.93;;;4.67;;
10491;SDS011;5293;51.464;-2.566;2022-09-02T02:36:30;11.67;;;5.40;;
10491;SDS011;5293;51.464;-2.566;2022-09-02T02:38:56;6.43;;;4.77;;
10491;SDS011;5293;51.464;-2.566;2022-09-02T02:41:22;8.20;;;5.33;;
10491;SDS011;5293;51.464;-2.566;2022-09-02T02:43:47;10.40;;;5.43;;
10491;SDS011;5293;51.464;-2.566;2022-09-02T02:46:13;5.93;;;5.33;;
10491;SDS011;5293;51.464;-2.566;2022-09-02T02:48:39;7.10;;;5.30;;
10491;SDS011;5293;51.464;-2.566;2022-09-02T02:51:06;8.60;;;5.03;;
10491;SDS011;5293;51.464;-2.566;2022-09-02T02:53:32;7.00;;;4.63;;
10491;SDS011;5293;51.464;-2.566;2022-09-02T02:56:00;5.63;;;4.43;;
10491;SDS011;5293;51.464;-2.566;2022-09-02T02:58:26;7.17;;;4.97;;
10491;SDS011;5293;51.464;-2.566;2022-09-02T03:00:51;7.53;;;4.70;;
10491;SDS011;5293;51.464;-2.566;2022-09-02T03:03:17;9.03;;;4.43;;
10491;SDS011;5293;51.464;-2.566;2022-09-02T03:05:43;8.70;;;4.43;;
10491;SDS011;5293;51.464;-2.566;2022-09-02T03:08:10;10.37;;;4.50;;
10491;SDS011;5293;51.464;-2.566;2022-09-02T03:10:37;8.40;;;4.90;;
10491;SDS011;5293;51.464;-2.566;2022-09-02T03:13:05;4.97;;;4.47;;
10491;SDS011;5293;51.464;-2.566;2022-09-02T03:15:31;6.83;;;4.33;;
10491;SDS011;5293;51.464;-2.566;2022-09-02T03:17:57;6.57;;;4.30;;
10491;SDS011;5293;51.464;-2.566;2022-09-02T03:20:23;10.77;;;5.40;;
10491;SDS011;5293;51.464;-2.566;2022-09-02T03:22:49;9.23;;;4.47;;
10491;SDS011;5293;51.464;-2.566;2022-09-02T03:25:18;6.47;;;4.50;;
10491;SDS011;5293;51.464;-2.566;2022-09-02T03:27:45;6.43;;;4.40;;
10491;SDS011;5293;51.464;-2.566;2022-09-02T03:30:14;9.13;;;4.47;;
10491;SDS011;5293;51.464;-2.566;2022-09-02T03:32:42;10.23;;;4.50;;
10491;SDS011;5293;51.464;-2.566;2022-09-02T03:35:10;6.83;;;4.33;;
10491;SDS011;5293;51.464;-2.566;2022-09-02T03:37:37;5.17;;;4.63;;
10491;SDS011;5293;51.464;-2.566;2022-09-02T03:40:04;7.13;;;4.27;;
10491;SDS011;5293;51.464;-2.566;2022-09-02T03:42:32;6.53;;;4.00;;
10491;SDS011;5293;51.464;-2.566;2022-09-02T03:44:58;4.20;;;3.67;;
10491;SDS011;5293;51.464;-2.566;2022-09-02T03:47:24;7.37;;;4.33;;
10491;SDS011;5293;51.464;-2.566;2022-09-02T03:49:49;8.17;;;4.57;;
10491;SDS011;5293;51.464;-2.566;2022-09-02T03:52:15;6.87;;;4.10;;
10491;SDS011;5293;51.464;-2.566;2022-09-02T03:54:41;5.27;;;3.70;;
10491;SDS011;5293;51.464;-2.566;2022-09-02T03:57:07;8.53;;;3.83;;
10491;SDS011;5293;51.464;-2.566;2022-09-02T03:59:33;7.63;;;4.37;;
10491;SDS011;5293;51.464;-2.566;2022-09-02T04:01:59;7.53;;;4.27;;
10491;SDS011;5293;51.464;-2.566;2022-09-02T04:04:26;7.50;;;3.83;;
10491;SDS011;5293;51.464;-2.566;2022-09-02T04:06:52;8.30;;;3.63;;
10491;SDS011;5293;51.464;-2.566;2022-09-02T04:09:18;5.57;;;4.10;;
10491;SDS011;5293;51.464;-2.566;2022-09-02T04:11:44;5.30;;;4.10;;
10491;SDS011;5293;51.464;-2.566;2022-09-02T04:14:10;9.20;;;3.60;;
10491;SDS011;5293;51.464;-2.566;2022-09-02T04:16:36;7.27;;;4.53;;
10491;SDS011;5293;51.464;-2.566;2022-09-02T04:19:02;9.47;;;4.33;;
10491;SDS011;5293;51.464;-2.566;2022-09-02T04:21:28;5.37;;;4.17;;
10491;SDS011;5293;51.464;-2.566;2022-09-02T04:23:57;5.77;;;3.80;;
10491;SDS011;5293;51.464;-2.566;2022-09-02T04:26:23;8.67;;;4.10;;
10491;SDS011;5293;51.464;-2.566;2022-09-02T04:28:49;8.60;;;4.30;;
10491;SDS011;5293;51.464;-2.566;2022-09-02T04:31:16;6.73;;;4.23;;
10491;SDS011;5293;51.464;-2.566;2022-09-02T04:33:44;7.03;;;3.63;;
10491;SDS011;5293;51.464;-2.566;2022-09-02T04:36:11;13.10;;;4.17;;
10491;SDS011;5293;51.464;-2.566;2022-09-02T04:38:38;11.67;;;3.77;;
10491;SDS011;5293;51.464;-2.566;2022-09-02T04:41:08;7.10;;;4.13;;
10491;SDS011;5293;51.464;-2.566;2022-09-02T04:43:36;10.20;;;4.63;;
10491;SDS011;5293;51.464;-2.566;2022-09-02T04:46:06;7.57;;;3.80;;
10491;SDS011;5293;51.464;-2.566;2022-09-02T04:48:34;14.87;;;4.23;;
10491;SDS011;5293;51.464;-2.566;2022-09-02T04:51:04;7.00;;;4.23;;
10491;SDS011;5293;51.464;-2.566;2022-09-02T04:53:31;5.93;;;4.00;;
10491;SDS011;5293;51.464;-2.566;2022-09-02T04:55:57;6.53;;;4.20;;
10491;SDS011;5293;51.464;-2.566;2022-09-02T04:58:23;8.67;;;4.43;;
10491;SDS011;5293;51.464;-2.566;2022-09-02T05:00:49;7.20;;;4.23;;
10491;SDS011;5293;51.464;-2.566;2022-09-02T05:03:15;5.47;;;3.70;;
10491;SDS011;5293;51.464;-2.566;2022-09-02T05:05:40;5.97;;;4.07;;
10491;SDS011;5293;51.464;-2.566;2022-09-02T05:08:06;6.00;;;4.00;;
10491;SDS011;5293;51.464;-2.566;2022-09-02T05:10:31;7.00;;;3.90;;
10491;SDS011;5293;51.464;-2.566;2022-09-02T05:12:58;6.80;;;4.40;;
10491;SDS011;5293;51.464;-2.566;2022-09-02T05:15:24;5.37;;;4.37;;
10491;SDS011;5293;51.464;-2.566;2022-09-02T05:17:50;5.73;;;3.53;;
10491;SDS011;5293;51.464;-2.566;2022-09-02T05:20:17;9.87;;;4.33;;
10491;SDS011;5293;51.464;-2.566;2022-09-02T05:22:43;6.47;;;4.00;;
10491;SDS011;5293;51.464;-2.566;2022-09-02T05:25:10;5.37;;;4.33;;
10491;SDS011;5293;51.464;-2.566;2022-09-02T05:27:35;8.77;;;4.40;;
10491;SDS011;5293;51.464;-2.566;2022-09-02T05:30:02;7.87;;;4.47;;
10491;SDS011;5293;51.464;-2.566;2022-09-02T05:32:29;8.20;;;5.10;;
10491;SDS011;5293;51.464;-2.566;2022-09-02T05:34:55;7.07;;;4.07;;
10491;SDS011;5293;51.464;-2.566;2022-09-02T05:37:21;9.30;;;4.23;;
10491;SDS011;5293;51.464;-2.566;2022-09-02T05:39:48;10.73;;;4.60;;
10491;SDS011;5293;51.464;-2.566;2022-09-02T05:42:14;7.50;;;4.90;;
10491;SDS011;5293;51.464;-2.566;2022-09-02T05:44:41;6.80;;;4.17;;
10491;SDS011;5293;51.464;-2.566;2022-09-02T05:47:09;7.50;;;4.17;;
10491;SDS011;5293;51.464;-2.566;2022-09-02T05:49:34;6.50;;;4.23;;
10491;SDS011;5293;51.464;-2.566;2022-09-02T05:52:00;8.33;;;4.40;;
10491;SDS011;5293;51.464;-2.566;2022-09-02T05:54:29;7.03;;;4.53;;
10491;SDS011;5293;51.464;-2.566;2022-09-02T05:56:57;7.47;;;4.33;;
10491;SDS011;5293;51.464;-2.566;2022-09-02T05:59:26;6.90;;;4.70;;
10491;SDS011;5293;51.464;-2.566;2022-09-02T06:01:54;6.00;;;4.77;;
10491;SDS011;5293;51.464;-2.566;2022-09-02T06:04:20;7.20;;;4.33;;
10491;SDS011;5293;51.464;-2.566;2022-09-02T06:06:47;8.27;;;5.20;;
10491;SDS011;5293;51.464;-2.566;2022-09-02T06:09:15;5.97;;;4.97;;
10491;SDS011;5293;51.464;-2.566;2022-09-02T06:11:44;8.57;;;4.70;;
10491;SDS011;5293;51.464;-2.566;2022-09-02T06:14:13;7.37;;;4.63;;
10491;SDS011;5293;51.464;-2.566;2022-09-02T06:16:41;9.17;;;4.63;;
10491;SDS011;5293;51.464;-2.566;2022-09-02T06:19:07;7.60;;;4.80;;
10491;SDS011;5293;51.464;-2.566;2022-09-02T06:21:34;8.03;;;4.60;;
10491;SDS011;5293;51.464;-2.566;2022-09-02T06:24:03;6.60;;;4.63;;
10491;SDS011;5293;51.464;-2.566;2022-09-02T06:26:30;5.47;;;4.30;;
10491;SDS011;5293;51.464;-2.566;2022-09-02T06:28:55;8.90;;;4.17;;
10491;SDS011;5293;51.464;-2.566;2022-09-02T06:31:22;6.90;;;4.97;;
10491;SDS011;5293;51.464;-2.566;2022-09-02T06:33:50;9.40;;;4.83;;
10491;SDS011;5293;51.464;-2.566;2022-09-02T06:36:18;8.30;;;4.53;;
10491;SDS011;5293;51.464;-2.566;2022-09-02T06:38:46;8.80;;;4.37;;
10491;SDS011;5293;51.464;-2.566;2022-09-02T06:41:14;8.77;;;4.03;;
10491;SDS011;5293;51.464;-2.566;2022-09-02T06:43:42;8.93;;;4.53;;
10491;SDS011;5293;51.464;-2.566;2022-09-02T06:46:13;8.63;;;4.43;;
10491;SDS011;5293;51.464;-2.566;2022-09-02T06:48:44;8.50;;;4.80;;
10491;SDS011;5293;51.464;-2.566;2022-09-02T06:51:17;6.67;;;5.00;;
10491;SDS011;5293;51.464;-2.566;2022-09-02T06:53:47;10.20;;;5.00;;
10491;SDS011;5293;51.464;-2.566;2022-09-02T06:56:13;7.93;;;3.97;;
10491;SDS011;5293;51.464;-2.566;2022-09-02T06:58:39;6.60;;;4.63;;
10491;SDS011;5293;51.464;-2.566;2022-09-02T07:01:05;10.83;;;4.77;;
10491;SDS011;5293;51.464;-2.566;2022-09-02T07:03:32;10.50;;;5.10;;
10491;SDS011;5293;51.464;-2.566;2022-09-02T07:06:16;12.93;;;4.83;;
10491;SDS011;5293;51.464;-2.566;2022-09-02T07:08:42;6.73;;;4.60;;
10491;SDS011;5293;51.464;-2.566;2022-09-02T07:11:15;7.80;;;5.10;;
10491;SDS011;5293;51.464;-2.566;2022-09-02T07:13:43;15.60;;;5.20;;
10491;SDS011;5293;51.464;-2.566;2022-09-02T07:16:09;11.80;;;5.07;;
10491;SDS011;5293;51.464;-2.566;2022-09-02T07:18:36;10.70;;;5.17;;
10491;SDS011;5293;51.464;-2.566;2022-09-02T07:21:01;8.37;;;4.70;;
10491;SDS011;5293;51.464;-2.566;2022-09-02T07:23:27;8.13;;;4.60;;
10491;SDS011;5293;51.464;-2.566;2022-09-02T07:25:53;8.37;;;4.43;;
10491;SDS011;5293;51.464;-2.566;2022-09-02T07:28:20;5.13;;;4.07;;
10491;SDS011;5293;51.464;-2.566;2022-09-02T07:30:46;8.23;;;3.67;;
10491;SDS011;5293;51.464;-2.566;2022-09-02T07:33:13;14.10;;;4.47;;
10491;SDS011;5293;51.464;-2.566;2022-09-02T07:35:42;8.50;;;3.70;;
10491;SDS011;5293;51.464;-2.566;2022-09-02T07:38:09;6.43;;;4.17;;
10491;SDS011;5293;51.464;-2.566;2022-09-02T07:40:36;7.80;;;4.17;;
10491;SDS011;5293;51.464;-2.566;2022-09-02T07:43:04;7.03;;;3.80;;
10491;SDS011;5293;51.464;-2.566;2022-09-02T07:45:31;8.07;;;3.37;;
10491;SDS011;5293;51.464;-2.566;2022-09-02T07:47:57;9.53;;;4.23;;
10491;SDS011;5293;51.464;-2.566;2022-09-02T07:50:23;8.77;;;3.47;;
10491;SDS011;5293;51.464;-2.566;2022-09-02T07:52:51;8.00;;;3.30;;
10491;SDS011;5293;51.464;-2.566;2022-09-02T07:55:21;6.57;;;3.23;;
10491;SDS011;5293;51.464;-2.566;2022-09-02T07:57:47;5.67;;;3.37;;
10491;SDS011;5293;51.464;-2.566;2022-09-02T08:00:14;9.10;;;3.57;;
10491;SDS011;5293;51.464;-2.566;2022-09-02T08:02:40;4.97;;;2.80;;
10491;SDS011;5293;51.464;-2.566;2022-09-02T08:05:07;9.23;;;3.60;;
10491;SDS011;5293;51.464;-2.566;2022-09-02T08:07:33;8.40;;;3.50;;
10491;SDS011;5293;51.464;-2.566;2022-09-02T08:09:59;8.60;;;3.07;;
10491;SDS011;5293;51.464;-2.566;2022-09-02T08:12:25;7.33;;;3.40;;
10491;SDS011;5293;51.464;-2.566;2022-09-02T08:14:52;5.97;;;3.47;;
10491;SDS011;5293;51.464;-2.566;2022-09-02T08:17:18;14.20;;;3.83;;
10491;SDS011;5293;51.464;-2.566;2022-09-02T08:19:43;10.33;;;3.27;;
10491;SDS011;5293;51.464;-2.566;2022-09-02T08:22:09;18.50;;;3.70;;
10491;SDS011;5293;51.464;-2.566;2022-09-02T08:24:35;5.93;;;3.80;;
10491;SDS011;5293;51.464;-2.566;2022-09-02T08:27:01;6.97;;;2.97;;
10491;SDS011;5293;51.464;-2.566;2022-09-02T08:29:26;12.47;;;3.27;;
10491;SDS011;5293;51.464;-2.566;2022-09-02T08:31:52;13.23;;;3.50;;
10491;SDS011;5293;51.464;-2.566;2022-09-02T08:34:18;10.70;;;3.60;;
10491;SDS011;5293;51.464;-2.566;2022-09-02T08:36:43;11.20;;;3.33;;
10491;SDS011;5293;51.464;-2.566;2022-09-02T08:39:09;7.77;;;3.53;;
10491;SDS011;5293;51.464;-2.566;2022-09-02T08:44:10;5.73;;;3.30;;
10491;SDS011;5293;51.464;-2.566;2022-09-02T08:46:39;11.90;;;4.13;;
10491;SDS011;5293;51.464;-2.566;2022-09-02T08:52:03;6.63;;;3.27;;
10491;SDS011;5293;51.464;-2.566;2022-09-02T08:54:35;3.70;;;3.40;;
10491;SDS011;5293;51.464;-2.566;2022-09-02T08:57:11;10.47;;;3.70;;
10491;SDS011;5293;51.464;-2.566;2022-09-02T08:59:37;11.50;;;3.97;;
10491;SDS011;5293;51.464;-2.566;2022-09-02T09:07:22;13.70;;;3.45;;
10491;SDS011;5293;51.464;-2.566;2022-09-02T09:09:54;7.63;;;3.33;;
10491;SDS011;5293;51.464;-2.566;2022-09-02T09:15:17;12.37;;;4.00;;
10491;SDS011;5293;51.464;-2.566;2022-09-02T09:20:32;15.53;;;3.17;;
10491;SDS011;5293;51.464;-2.566;2022-09-02T09:23:13;5.80;;;3.53;;
10491;SDS011;5293;51.464;-2.566;2022-09-02T09:26:06;7.97;;;3.03;;
10491;SDS011;5293;51.464;-2.566;2022-09-02T09:28:41;7.23;;;3.30;;
10491;SDS011;5293;51.464;-2.566;2022-09-02T09:31:21;12.47;;;3.53;;
10491;SDS011;5293;51.464;-2.566;2022-09-02T09:36:49;8.57;;;3.20;;
10491;SDS011;5293;51.464;-2.566;2022-09-02T09:39:25;5.83;;;3.10;;
10491;SDS011;5293;51.464;-2.566;2022-09-02T09:42:03;12.17;;;3.40;;
10491;SDS011;5293;51.464;-2.566;2022-09-02T09:44:46;7.40;;;3.90;;
10491;SDS011;5293;51.464;-2.566;2022-09-02T09:47:14;9.37;;;3.53;;
10491;SDS011;5293;51.464;-2.566;2022-09-02T09:49:50;9.77;;;3.90;;
10491;SDS011;5293;51.464;-2.566;2022-09-02T09:52:27;6.13;;;3.57;;
10491;SDS011;5293;51.464;-2.566;2022-09-02T09:55:13;7.87;;;3.47;;
10491;SDS011;5293;51.464;-2.566;2022-09-02T09:57:45;8.20;;;3.70;;
10491;SDS011;5293;51.464;-2.566;2022-09-02T10:02:45;7.97;;;3.50;;
10491;SDS011;5293;51.464;-2.566;2022-09-02T10:07:55;11.63;;;3.87;;
10491;SDS011;5293;51.464;-2.566;2022-09-02T10:10:24;7.17;;;3.97;;
10491;SDS011;5293;51.464;-2.566;2022-09-02T10:12:53;10.73;;;3.80;;
10491;SDS011;5293;51.464;-2.566;2022-09-02T10:15:23;5.47;;;3.70;;
10491;SDS011;5293;51.464;-2.566;2022-09-02T10:20:56;9.37;;;3.63;;
10491;SDS011;5293;51.464;-2.566;2022-09-02T10:24:28;12.03;;;3.13;;
10491;SDS011;5293;51.464;-2.566;2022-09-02T10:26:31;7.80;;;3.00;;
10491;SDS011;5293;51.464;-2.566;2022-09-02T10:29:24;6.57;;;2.90;;
10491;SDS011;5293;51.464;-2.566;2022-09-02T10:47:38;4.77;;;3.00;;
10491;SDS011;5293;51.464;-2.566;2022-09-02T10:50:07;6.53;;;2.83;;
10491;SDS011;5293;51.464;-2.566;2022-09-02T10:55:58;7.80;;;2.90;;
10491;SDS011;5293;51.464;-2.566;2022-09-02T11:01:15;8.83;;;2.90;;
10491;SDS011;5293;51.464;-2.566;2022-09-02T11:06:40;8.47;;;2.80;;
10491;SDS011;5293;51.464;-2.566;2022-09-02T11:09:29;6.03;;;2.77;;
10491;SDS011;5293;51.464;-2.566;2022-09-02T11:12:10;4.77;;;3.00;;
10491;SDS011;5293;51.464;-2.566;2022-09-02T11:17:43;8.23;;;2.83;;
10491;SDS011;5293;51.464;-2.566;2022-09-02T11:20:31;9.50;;;3.13;;
10491;SDS011;5293;51.464;-2.566;2022-09-02T11:34:03;10.03;;;3.80;;
10491;SDS011;5293;51.464;-2.566;2022-09-02T11:36:50;4.80;;;3.87;;
10491;SDS011;5293;51.464;-2.566;2022-09-02T11:41:58;8.03;;;3.53;;
10491;SDS011;5293;51.464;-2.566;2022-09-02T11:47:06;7.00;;;3.10;;
10491;SDS011;5293;51.464;-2.566;2022-09-02T11:56:18;5.70;;;3.20;;
10491;SDS011;5293;51.464;-2.566;2022-09-02T11:58:49;3.20;;;2.90;;
10491;SDS011;5293;51.464;-2.566;2022-09-02T12:04:21;6.97;;;3.37;;
10491;SDS011;5293;51.464;-2.566;2022-09-02T12:09:47;5.40;;;2.90;;
10491;SDS011;5293;51.464;-2.566;2022-09-02T12:23:02;5.30;;;2.60;;
10491;SDS011;5293;51.464;-2.566;2022-09-02T12:33:33;7.77;;;3.10;;
10491;SDS011;5293;51.464;-2.566;2022-09-02T12:36:00;6.80;;;2.90;;
10491;SDS011;5293;51.464;-2.566;2022-09-02T12:38:30;9.53;;;2.97;;
10491;SDS011;5293;51.464;-2.566;2022-09-02T12:43:35;8.83;;;3.43;;
10491;SDS011;5293;51.464;-2.566;2022-09-02T12:49:20;7.03;;;3.10;;
10491;SDS011;5293;51.464;-2.566;2022-09-02T12:52:10;6.67;;;2.90;;
10491;SDS011;5293;51.464;-2.566;2022-09-02T12:54:56;5.13;;;3.53;;
10491;SDS011;5293;51.464;-2.566;2022-09-02T12:57:36;4.13;;;3.20;;
10491;SDS011;5293;51.464;-2.566;2022-09-02T13:00:04;7.10;;;3.50;;
10491;SDS011;5293;51.464;-2.566;2022-09-02T13:02:51;6.20;;;2.70;;
10491;SDS011;5293;51.464;-2.566;2022-09-02T13:05:33;10.43;;;3.27;;
10491;SDS011;5293;51.464;-2.566;2022-09-02T13:16:35;3.93;;;2.40;;
10491;SDS011;5293;51.464;-2.566;2022-09-02T13:20:11;4.97;;;2.40;;
10491;SDS011;5293;51.464;-2.566;2022-09-02T13:33:25;2.53;;;2.00;;
10491;SDS011;5293;51.464;-2.566;2022-09-02T13:35:55;4.50;;;2.37;;
10491;SDS011;5293;51.464;-2.566;2022-09-02T13:38:26;4.67;;;2.60;;
10491;SDS011;5293;51.464;-2.566;2022-09-02T13:40:53;5.30;;;2.50;;
10491;SDS011;5293;51.464;-2.566;2022-09-02T13:43:21;5.70;;;2.60;;
10491;SDS011;5293;51.464;-2.566;2022-09-02T13:45:49;6.23;;;2.47;;
10491;SDS011;5293;51.464;-2.566;2022-09-02T13:48:23;3.07;;;1.90;;
10491;SDS011;5293;51.464;-2.566;2022-09-02T13:50:52;5.90;;;3.00;;
10491;SDS011;5293;51.464;-2.566;2022-09-02T13:53:52;5.00;;;2.40;;
10491;SDS011;5293;51.464;-2.566;2022-09-02T13:56:13;6.30;;;2.60;;
10491;SDS011;5293;51.464;-2.566;2022-09-02T13:58:45;3.87;;;2.60;;
10491;SDS011;5293;51.464;-2.566;2022-09-02T14:01:17;3.90;;;2.23;;
10491;SDS011;5293;51.464;-2.566;2022-09-02T14:03:55;6.13;;;2.70;;
10491;SDS011;5293;51.464;-2.566;2022-09-02T14:06:23;3.90;;;2.60;;
10491;SDS011;5293;51.464;-2.566;2022-09-02T14:08:56;7.33;;;2.93;;
10491;SDS011;5293;51.464;-2.566;2022-09-02T14:11:25;5.83;;;2.83;;
10491;SDS011;5293;51.464;-2.566;2022-09-02T14:13:52;5.43;;;3.03;;
10491;SDS011;5293;51.464;-2.566;2022-09-02T14:16:27;7.23;;;2.87;;
10491;SDS011;5293;51.464;-2.566;2022-09-02T14:19:06;4.90;;;2.83;;
10491;SDS011;5293;51.464;-2.566;2022-09-02T14:21:35;6.43;;;2.90;;
10491;SDS011;5293;51.464;-2.566;2022-09-02T14:24:02;5.70;;;2.60;;
10491;SDS011;5293;51.464;-2.566;2022-09-02T14:29:00;4.23;;;2.27;;
10491;SDS011;5293;51.464;-2.566;2022-09-02T14:31:28;3.37;;;2.37;;
10491;SDS011;5293;51.464;-2.566;2022-09-02T14:33:57;6.53;;;2.60;;
10491;SDS011;5293;51.464;-2.566;2022-09-02T14:39:16;3.50;;;2.30;;
10491;SDS011;5293;51.464;-2.566;2022-09-02T14:41:46;5.07;;;2.20;;
10491;SDS011;5293;51.464;-2.566;2022-09-02T14:44:20;5.30;;;2.50;;
10491;SDS011;5293;51.464;-2.566;2022-09-02T14:46:56;6.97;;;2.50;;
10491;SDS011;5293;51.464;-2.566;2022-09-02T14:49:38;6.40;;;2.37;;
10491;SDS011;5293;51.464;-2.566;2022-09-02T14:52:15;4.67;;;2.40;;
10491;SDS011;5293;51.464;-2.566;2022-09-02T14:54:53;5.03;;;2.60;;
10491;SDS011;5293;51.464;-2.566;2022-09-02T14:59:54;3.23;;;2.20;;
10491;SDS011;5293;51.464;-2.566;2022-09-02T15:04:59;4.23;;;2.10;;
10491;SDS011;5293;51.464;-2.566;2022-09-02T15:07:27;3.47;;;2.50;;
10491;SDS011;5293;51.464;-2.566;2022-09-02T15:09:53;3.60;;;2.20;;
10491;SDS011;5293;51.464;-2.566;2022-09-02T15:12:20;2.53;;;1.90;;
10491;SDS011;5293;51.464;-2.566;2022-09-02T15:14:51;3.60;;;2.23;;
10491;SDS011;5293;51.464;-2.566;2022-09-02T15:17:18;3.53;;;2.20;;
10491;SDS011;5293;51.464;-2.566;2022-09-02T15:19:44;4.10;;;2.10;;
10491;SDS011;5293;51.464;-2.566;2022-09-02T15:22:11;4.83;;;2.23;;
10491;SDS011;5293;51.464;-2.566;2022-09-02T15:24:37;4.57;;;2.37;;
10491;SDS011;5293;51.464;-2.566;2022-09-02T15:27:03;3.60;;;2.20;;
10491;SDS011;5293;51.464;-2.566;2022-09-02T15:29:29;4.87;;;2.37;;
10491;SDS011;5293;51.464;-2.566;2022-09-02T15:31:55;4.77;;;2.30;;
10491;SDS011;5293;51.464;-2.566;2022-09-02T15:34:21;6.07;;;2.60;;
10491;SDS011;5293;51.464;-2.566;2022-09-02T15:36:47;5.63;;;2.30;;
10491;SDS011;5293;51.464;-2.566;2022-09-02T15:39:12;5.50;;;1.73;;
10491;SDS011;5293;51.464;-2.566;2022-09-02T15:41:41;7.00;;;2.33;;
10491;SDS011;5293;51.464;-2.566;2022-09-02T15:44:08;5.47;;;2.40;;
10491;SDS011;5293;51.464;-2.566;2022-09-02T15:46:35;5.23;;;2.10;;
10491;SDS011;5293;51.464;-2.566;2022-09-02T15:49:05;3.13;;;1.97;;
10491;SDS011;5293;51.464;-2.566;2022-09-02T15:51:33;5.13;;;2.30;;
10491;SDS011;5293;51.464;-2.566;2022-09-02T15:54:00;3.90;;;2.33;;
10491;SDS011;5293;51.464;-2.566;2022-09-02T15:56:28;3.50;;;2.70;;
10491;SDS011;5293;51.464;-2.566;2022-09-02T15:58:59;3.70;;;2.50;;
10491;SDS011;5293;51.464;-2.566;2022-09-02T16:01:31;2.97;;;2.40;;
10491;SDS011;5293;51.464;-2.566;2022-09-02T16:03:58;5.40;;;3.77;;
10491;SDS011;5293;51.464;-2.566;2022-09-02T16:06:26;3.10;;;2.70;;
10491;SDS011;5293;51.464;-2.566;2022-09-02T16:08:53;5.17;;;2.60;;
10491;SDS011;5293;51.464;-2.566;2022-09-02T16:11:19;4.73;;;2.47;;
10491;SDS011;5293;51.464;-2.566;2022-09-02T16:13:45;4.07;;;2.60;;
10491;SDS011;5293;51.464;-2.566;2022-09-02T16:16:11;8.17;;;2.60;;
10491;SDS011;5293;51.464;-2.566;2022-09-02T16:18:38;2.73;;;2.17;;
10491;SDS011;5293;51.464;-2.566;2022-09-02T16:21:06;6.10;;;2.67;;
10491;SDS011;5293;51.464;-2.566;2022-09-02T16:23:33;2.53;;;2.30;;
10491;SDS011;5293;51.464;-2.566;2022-09-02T16:26:06;4.47;;;2.47;;
10491;SDS011;5293;51.464;-2.566;2022-09-02T16:28:39;6.70;;;2.90;;
10491;SDS011;5293;51.464;-2.566;2022-09-02T16:31:10;2.90;;;2.00;;
10491;SDS011;5293;51.464;-2.566;2022-09-02T16:33:37;4.53;;;2.77;;
10491;SDS011;5293;51.464;-2.566;2022-09-02T16:36:04;6.17;;;2.23;;
10491;SDS011;5293;51.464;-2.566;2022-09-02T16:38:30;5.73;;;2.23;;
10491;SDS011;5293;51.464;-2.566;2022-09-02T16:40:58;3.43;;;2.50;;
10491;SDS011;5293;51.464;-2.566;2022-09-02T16:43:25;7.23;;;2.40;;
10491;SDS011;5293;51.464;-2.566;2022-09-02T16:45:51;4.57;;;2.30;;
10491;SDS011;5293;51.464;-2.566;2022-09-02T16:48:18;5.60;;;2.13;;
10491;SDS011;5293;51.464;-2.566;2022-09-02T16:50:45;4.37;;;2.27;;
10491;SDS011;5293;51.464;-2.566;2022-09-02T16:53:11;7.97;;;2.60;;
10491;SDS011;5293;51.464;-2.566;2022-09-02T16:55:41;5.47;;;2.27;;
10491;SDS011;5293;51.464;-2.566;2022-09-02T16:58:07;15.97;;;5.27;;
10491;SDS011;5293;51.464;-2.566;2022-09-02T17:00:37;8.23;;;3.97;;
10491;SDS011;5293;51.464;-2.566;2022-09-02T17:03:05;8.20;;;3.80;;
10491;SDS011;5293;51.464;-2.566;2022-09-02T17:05:31;5.77;;;2.57;;
10491;SDS011;5293;51.464;-2.566;2022-09-02T17:07:56;6.73;;;2.87;;
10491;SDS011;5293;51.464;-2.566;2022-09-02T17:10:23;3.53;;;2.17;;
10491;SDS011;5293;51.464;-2.566;2022-09-02T17:12:48;2.83;;;2.20;;
10491;SDS011;5293;51.464;-2.566;2022-09-02T17:15:14;7.27;;;2.40;;